UAE65 EGLL-EGCC
Flight info
| Callsign | UAE65 |
|---|---|
| Flight time | 0h 31m |
| Altitude | 18000 |
| Route | ULTIB T420 ELVOS |
| Aircraft | A388/J-SADE2E3FGHIJ3J4J5M1RWXY/L |
Departure
| Time | 2026-05-08 00:07 |
|---|---|
| Airport | London Heathrow Airport (EGLL) |
Arrival
| Time | 2026-05-08 00:38 |
|---|---|
| Airport | Manchester Airport (EGCC) |
| Time | Latitude | Longitude | Altitude | Speed | Heading |
|---|---|---|---|---|---|
| 2026-05-07 23:53 | 51.46833 | -0.45829 | 95 ft | 0 kts | 360° |
| 2026-05-07 23:59 | 51.46816 | -0.45827 | 91 ft | 2 kts | 355° |
| 2026-05-08 00:00 | 51.46800 | -0.45823 | 94 ft | 2 kts | 348° |
| 2026-05-08 00:00 | 51.46785 | -0.45814 | 92 ft | 2 kts | 338° |
| 2026-05-08 00:00 | 51.46771 | -0.45800 | 93 ft | 2 kts | 325° |
| 2026-05-08 00:00 | 51.46759 | -0.45781 | 93 ft | 2 kts | 309° |
| 2026-05-08 00:01 | 51.46752 | -0.45758 | 92 ft | 2 kts | 294° |
| 2026-05-08 00:01 | 51.46748 | -0.45733 | 94 ft | 2 kts | 279° |
| 2026-05-08 00:01 | 51.46748 | -0.45720 | 94 ft | 0 kts | 270° |
| 2026-05-08 00:02 | 51.46748 | -0.45759 | 92 ft | 7 kts | 272° |
| 2026-05-08 00:02 | 51.46749 | -0.45870 | 91 ft | 13 kts | 269° |
| 2026-05-08 00:02 | 51.46748 | -0.46036 | 94 ft | 17 kts | 270° |
| 2026-05-08 00:02 | 51.46748 | -0.46240 | 95 ft | 20 kts | 270° |
| 2026-05-08 00:03 | 51.46748 | -0.46474 | 95 ft | 22 kts | 270° |
| 2026-05-08 00:03 | 51.46747 | -0.46730 | 95 ft | 24 kts | 270° |
| 2026-05-08 00:03 | 51.46747 | -0.47002 | 95 ft | 25 kts | 270° |
| 2026-05-08 00:03 | 51.46746 | -0.47285 | 95 ft | 26 kts | 269° |
| 2026-05-08 00:04 | 51.46744 | -0.47567 | 91 ft | 23 kts | 269° |
| 2026-05-08 00:04 | 51.46744 | -0.47814 | 91 ft | 22 kts | 270° |
| 2026-05-08 00:04 | 51.46743 | -0.48070 | 93 ft | 24 kts | 269° |
| 2026-05-08 00:04 | 51.46743 | -0.48334 | 93 ft | 24 kts | 270° |
| 2026-05-08 00:05 | 51.46742 | -0.48555 | 91 ft | 12 kts | 269° |
| 2026-05-08 00:05 | 51.46729 | -0.48704 | 96 ft | 14 kts | 233° |
| 2026-05-08 00:05 | 51.46652 | -0.48750 | 94 ft | 14 kts | 189° |
| 2026-05-08 00:05 | 51.46548 | -0.48775 | 94 ft | 16 kts | 180° |
| 2026-05-08 00:06 | 51.46479 | -0.48697 | 94 ft | 9 kts | 99° |
| 2026-05-08 00:06 | 51.46477 | -0.48664 | 94 ft | 0 kts | 90° |
| 2026-05-08 00:06 | 51.46479 | -0.48467 | 91 ft | 57 kts | 89° |
| 2026-05-08 00:07 | 51.46482 | -0.47384 | 94 ft | 131 kts | 90° |
| 2026-05-08 00:07 | 51.46495 | -0.45684 | 230 ft | 162 kts | 89° |
| 2026-05-08 00:07 | 51.46528 | -0.43916 | 833 ft | 159 kts | 89° |
| 2026-05-08 00:07 | 51.46552 | -0.42166 | 1507 ft | 155 kts | 90° |
| 2026-05-08 00:08 | 51.46856 | -0.40501 | 2093 ft | 160 kts | 62° |
| 2026-05-08 00:08 | 51.47521 | -0.39044 | 2758 ft | 163 kts | 54° |
| 2026-05-08 00:08 | 51.48242 | -0.37649 | 3487 ft | 166 kts | 53° |
| 2026-05-08 00:08 | 51.49019 | -0.36159 | 3915 ft | 182 kts | 53° |
| 2026-05-08 00:09 | 51.49881 | -0.34507 | 4256 ft | 206 kts | 52° |
| 2026-05-08 00:09 | 51.50850 | -0.32659 | 4782 ft | 228 kts | 50° |
| 2026-05-08 00:09 | 51.52181 | -0.31055 | 5302 ft | 252 kts | 30° |
| 2026-05-08 00:09 | 51.53813 | -0.29771 | 5963 ft | 267 kts | 22° |
| 2026-05-08 00:10 | 51.55646 | -0.29176 | 6863 ft | 271 kts | 5° |
| 2026-05-08 00:10 | 51.57550 | -0.28932 | 7715 ft | 277 kts | 3° |
| 2026-05-08 00:10 | 51.58834 | -0.28790 | 8290 ft | 281 kts | 2° |
| 2026-05-08 00:10 | 51.60801 | -0.28564 | 9207 ft | 285 kts | 2° |
| 2026-05-08 00:11 | 51.62799 | -0.28315 | 10099 ft | 290 kts | 1° |
| 2026-05-08 00:11 | 51.64852 | -0.28119 | 10596 ft | 305 kts | 354° |
| 2026-05-08 00:11 | 51.66978 | -0.28860 | 10826 ft | 322 kts | 334° |
| 2026-05-08 00:11 | 51.68959 | -0.30687 | 11224 ft | 334 kts | 325° |
| 2026-05-08 00:12 | 51.70958 | -0.32661 | 11931 ft | 339 kts | 326° |
| 2026-05-08 00:12 | 51.72996 | -0.34639 | 12626 ft | 345 kts | 326° |
| 2026-05-08 00:12 | 51.75073 | -0.36642 | 13342 ft | 350 kts | 327° |
| 2026-05-08 00:12 | 51.77183 | -0.38676 | 14023 ft | 356 kts | 327° |
| 2026-05-08 00:13 | 51.79318 | -0.40738 | 14695 ft | 359 kts | 327° |
| 2026-05-08 00:13 | 51.81468 | -0.42818 | 15369 ft | 363 kts | 326° |
| 2026-05-08 00:13 | 51.83647 | -0.44930 | 16011 ft | 367 kts | 326° |
| 2026-05-08 00:13 | 51.85818 | -0.47037 | 16671 ft | 370 kts | 326° |
| 2026-05-08 00:14 | 51.88036 | -0.49193 | 17317 ft | 374 kts | 326° |
| 2026-05-08 00:14 | 51.90279 | -0.51376 | 17923 ft | 379 kts | 326° |
| 2026-05-08 00:14 | 51.92557 | -0.53596 | 18080 ft | 388 kts | 326° |
| 2026-05-08 00:14 | 51.94921 | -0.55907 | 18074 ft | 403 kts | 326° |
| 2026-05-08 00:15 | 51.97333 | -0.58263 | 18071 ft | 404 kts | 326° |
| 2026-05-08 00:15 | 51.99739 | -0.60612 | 18076 ft | 404 kts | 326° |
| 2026-05-08 00:15 | 52.02144 | -0.62963 | 18076 ft | 403 kts | 326° |
| 2026-05-08 00:15 | 52.04547 | -0.65317 | 18082 ft | 403 kts | 326° |
| 2026-05-08 00:16 | 52.06950 | -0.67674 | 18075 ft | 403 kts | 326° |
| 2026-05-08 00:16 | 52.09352 | -0.70034 | 18076 ft | 403 kts | 326° |
| 2026-05-08 00:16 | 52.11753 | -0.72397 | 18075 ft | 404 kts | 326° |
| 2026-05-08 00:16 | 52.14157 | -0.74765 | 18075 ft | 403 kts | 326° |
| 2026-05-08 00:17 | 52.16557 | -0.77134 | 18072 ft | 403 kts | 326° |
| 2026-05-08 00:17 | 52.18958 | -0.79506 | 18073 ft | 403 kts | 326° |
| 2026-05-08 00:17 | 52.21362 | -0.81886 | 18073 ft | 403 kts | 326° |
| 2026-05-08 00:17 | 52.23757 | -0.84259 | 18072 ft | 403 kts | 326° |
| 2026-05-08 00:18 | 52.26157 | -0.86640 | 18072 ft | 403 kts | 326° |
| 2026-05-08 00:18 | 52.28559 | -0.89024 | 18082 ft | 404 kts | 326° |
| 2026-05-08 00:18 | 52.30957 | -0.91408 | 18074 ft | 403 kts | 326° |
| 2026-05-08 00:18 | 52.33325 | -0.93763 | 18075 ft | 403 kts | 326° |
| 2026-05-08 00:19 | 52.35724 | -0.96153 | 18078 ft | 403 kts | 326° |
| 2026-05-08 00:19 | 52.38120 | -0.98543 | 18076 ft | 403 kts | 326° |
| 2026-05-08 00:19 | 52.40523 | -1.00943 | 18071 ft | 404 kts | 326° |
| 2026-05-08 00:19 | 52.42925 | -1.03345 | 18059 ft | 404 kts | 326° |
| 2026-05-08 00:20 | 52.45322 | -1.05746 | 18059 ft | 404 kts | 326° |
| 2026-05-08 00:20 | 52.47717 | -1.08147 | 18050 ft | 404 kts | 326° |
| 2026-05-08 00:20 | 52.50116 | -1.10556 | 18046 ft | 404 kts | 326° |
| 2026-05-08 00:20 | 52.52510 | -1.12967 | 18044 ft | 404 kts | 326° |
| 2026-05-08 00:21 | 52.54905 | -1.15383 | 18038 ft | 404 kts | 326° |
| 2026-05-08 00:21 | 52.57298 | -1.17801 | 18029 ft | 404 kts | 326° |
| 2026-05-08 00:21 | 52.59692 | -1.20218 | 18027 ft | 404 kts | 326° |
| 2026-05-08 00:21 | 52.62087 | -1.22637 | 18024 ft | 404 kts | 326° |
| 2026-05-08 00:22 | 52.64468 | -1.25046 | 18019 ft | 404 kts | 326° |
| 2026-05-08 00:22 | 52.66876 | -1.27486 | 18020 ft | 404 kts | 326° |
| 2026-05-08 00:22 | 52.69243 | -1.29885 | 17917 ft | 395 kts | 326° |
| 2026-05-08 00:22 | 52.71563 | -1.32240 | 17603 ft | 389 kts | 326° |
| 2026-05-08 00:23 | 52.73861 | -1.34579 | 17340 ft | 387 kts | 326° |
| 2026-05-08 00:23 | 52.76114 | -1.36878 | 17020 ft | 385 kts | 326° |
| 2026-05-08 00:23 | 52.78390 | -1.39201 | 16716 ft | 383 kts | 326° |
| 2026-05-08 00:23 | 52.80655 | -1.41517 | 16405 ft | 382 kts | 326° |
| 2026-05-08 00:24 | 52.82914 | -1.43829 | 16104 ft | 381 kts | 326° |
| 2026-05-08 00:24 | 52.85161 | -1.46131 | 15781 ft | 379 kts | 326° |
| 2026-05-08 00:24 | 52.87396 | -1.48424 | 15486 ft | 378 kts | 326° |
| 2026-05-08 00:24 | 52.89627 | -1.50714 | 15189 ft | 376 kts | 326° |
| 2026-05-08 00:25 | 52.91842 | -1.52991 | 14888 ft | 373 kts | 326° |
| 2026-05-08 00:25 | 52.94044 | -1.55236 | 14576 ft | 369 kts | 326° |
| 2026-05-08 00:25 | 52.96223 | -1.57463 | 14094 ft | 366 kts | 326° |
| 2026-05-08 00:25 | 52.98384 | -1.59679 | 13425 ft | 363 kts | 326° |
| 2026-05-08 00:26 | 53.00526 | -1.61880 | 12796 ft | 360 kts | 326° |
| 2026-05-08 00:26 | 53.02648 | -1.64063 | 12163 ft | 357 kts | 326° |
| 2026-05-08 00:26 | 53.04752 | -1.66233 | 11552 ft | 354 kts | 326° |
| 2026-05-08 00:26 | 53.06832 | -1.68389 | 10940 ft | 350 kts | 324° |
| 2026-05-08 00:27 | 53.08654 | -1.71015 | 10337 ft | 344 kts | 310° |
| 2026-05-08 00:27 | 53.10224 | -1.73904 | 9729 ft | 341 kts | 310° |
| 2026-05-08 00:27 | 53.11832 | -1.76874 | 9072 ft | 337 kts | 308° |
| 2026-05-08 00:27 | 53.12977 | -1.80149 | 8446 ft | 330 kts | 287° |
| 2026-05-08 00:28 | 53.13500 | -1.83834 | 7830 ft | 325 kts | 280° |
| 2026-05-08 00:28 | 53.13970 | -1.87514 | 7415 ft | 323 kts | 280° |
| 2026-05-08 00:28 | 53.14436 | -1.91159 | 7116 ft | 321 kts | 280° |
| 2026-05-08 00:28 | 53.14898 | -1.94798 | 6806 ft | 321 kts | 280° |
| 2026-05-08 00:29 | 53.15362 | -1.98428 | 6512 ft | 319 kts | 280° |
| 2026-05-08 00:29 | 53.15753 | -2.02066 | 6194 ft | 317 kts | 279° |
| 2026-05-08 00:29 | 53.16275 | -2.05642 | 5882 ft | 318 kts | 278° |
| 2026-05-08 00:29 | 53.16462 | -2.09282 | 5590 ft | 314 kts | 270° |
| 2026-05-08 00:30 | 53.16537 | -2.12915 | 5339 ft | 313 kts | 270° |
| 2026-05-08 00:30 | 53.16614 | -2.16539 | 5079 ft | 312 kts | 270° |
| 2026-05-08 00:30 | 53.16690 | -2.20148 | 4819 ft | 311 kts | 270° |
| 2026-05-08 00:30 | 53.16767 | -2.23746 | 4560 ft | 311 kts | 270° |
| 2026-05-08 00:31 | 53.16832 | -2.27337 | 4298 ft | 309 kts | 268° |
| 2026-05-08 00:31 | 53.16674 | -2.30898 | 4039 ft | 307 kts | 260° |
| 2026-05-08 00:31 | 53.16368 | -2.34401 | 3781 ft | 302 kts | 260° |
| 2026-05-08 00:31 | 53.16079 | -2.37782 | 3561 ft | 288 kts | 260° |
| 2026-05-08 00:32 | 53.15808 | -2.40961 | 3425 ft | 273 kts | 260° |
| 2026-05-08 00:32 | 53.15551 | -2.44015 | 3311 ft | 259 kts | 260° |
| 2026-05-08 00:32 | 53.15310 | -2.46906 | 3259 ft | 245 kts | 260° |
| 2026-05-08 00:32 | 53.15349 | -2.49668 | 3186 ft | 240 kts | 284° |
| 2026-05-08 00:33 | 53.16189 | -2.52004 | 3134 ft | 237 kts | 314° |
| 2026-05-08 00:33 | 53.17484 | -2.53695 | 3106 ft | 235 kts | 320° |
| 2026-05-08 00:33 | 53.18921 | -2.54952 | 3018 ft | 237 kts | 345° |
| 2026-05-08 00:33 | 53.20558 | -2.54937 | 2998 ft | 238 kts | 16° |
| 2026-05-08 00:34 | 53.21971 | -2.53628 | 2992 ft | 227 kts | 41° |
| 2026-05-08 00:34 | 53.23047 | -2.51808 | 3008 ft | 213 kts | 50° |
| 2026-05-08 00:34 | 53.23951 | -2.49973 | 3000 ft | 196 kts | 52° |
| 2026-05-08 00:34 | 53.24817 | -2.48200 | 2867 ft | 197 kts | 51° |
| 2026-05-08 00:35 | 53.25681 | -2.46436 | 2586 ft | 196 kts | 52° |
| 2026-05-08 00:35 | 53.26515 | -2.44735 | 2311 ft | 182 kts | 52° |
| 2026-05-08 00:35 | 53.27298 | -2.43127 | 2062 ft | 175 kts | 52° |
| 2026-05-08 00:35 | 53.28054 | -2.41581 | 1832 ft | 173 kts | 52° |
| 2026-05-08 00:36 | 53.28808 | -2.40037 | 1595 ft | 167 kts | 53° |
| 2026-05-08 00:36 | 53.29522 | -2.38577 | 1374 ft | 159 kts | 52° |
| 2026-05-08 00:36 | 53.30210 | -2.37165 | 1165 ft | 154 kts | 53° |
| 2026-05-08 00:36 | 53.30890 | -2.35771 | 961 ft | 158 kts | 52° |
| 2026-05-08 00:37 | 53.31595 | -2.34323 | 746 ft | 169 kts | 52° |
| 2026-05-08 00:37 | 53.32324 | -2.32832 | 500 ft | 159 kts | 51° |
| 2026-05-08 00:37 | 53.33005 | -2.31465 | 302 ft | 151 kts | 50° |
| 2026-05-08 00:38 | 53.34065 | -2.29282 | 238 ft | 72 kts | 51° |
| 2026-05-08 00:38 | 53.34342 | -2.28704 | 230 ft | 52 kts | 51° |
| 2026-05-08 00:38 | 53.34507 | -2.28372 | 235 ft | 34 kts | 45° |
| 2026-05-08 00:38 | 53.34662 | -2.28195 | 237 ft | 12 kts | 21° |
| 2026-05-08 00:39 | 53.34742 | -2.28141 | 241 ft | 14 kts | 21° |
| 2026-05-08 00:39 | 53.34846 | -2.28069 | 237 ft | 19 kts | 27° |
| 2026-05-08 00:39 | 53.34944 | -2.27979 | 240 ft | 14 kts | 359° |
| 2026-05-08 00:39 | 53.35028 | -2.28056 | 239 ft | 14 kts | 320° |
| 2026-05-08 00:40 | 53.35120 | -2.28174 | 236 ft | 20 kts | 333° |
| 2026-05-08 00:40 | 53.35239 | -2.28194 | 240 ft | 17 kts | 6° |
| 2026-05-08 00:40 | 53.35340 | -2.28112 | 241 ft | 16 kts | 45° |
| 2026-05-08 00:40 | 53.35436 | -2.27961 | 242 ft | 23 kts | 33° |
| 2026-05-08 00:41 | 53.35565 | -2.27904 | 242 ft | 20 kts | 6° |
| 2026-05-08 00:41 | 53.35697 | -2.27882 | 249 ft | 18 kts | 5° |
| 2026-05-08 00:41 | 53.35818 | -2.27862 | 256 ft | 17 kts | 6° |
| 2026-05-08 00:41 | 53.35931 | -2.27857 | 260 ft | 17 kts | 348° |
| 2026-05-08 00:42 | 53.36033 | -2.27960 | 260 ft | 19 kts | 318° |
| 2026-05-08 00:42 | 53.36134 | -2.28116 | 260 ft | 21 kts | 315° |
| 2026-05-08 00:42 | 53.36238 | -2.28292 | 260 ft | 22 kts | 314° |
| 2026-05-08 00:42 | 53.36332 | -2.28445 | 260 ft | 10 kts | 333° |
| 2026-05-08 00:43 | 53.36403 | -2.28427 | 260 ft | 12 kts | 40° |
| 2026-05-08 00:43 | 53.36471 | -2.28369 | 260 ft | 9 kts | 345° |
| 2026-05-08 00:43 | 53.36494 | -2.28409 | 260 ft | 5 kts | 284° |
| 2026-05-08 00:43 | 53.36505 | -2.28458 | 260 ft | 2 kts | 311° |
| 2026-05-08 00:44 | 53.36508 | -2.28463 | 260 ft | 0 kts | 314° |